Time,TemperatureF,DewpointF,PressureIn,WindDirection,WindDirectionDegrees,WindSpeedMPH,WindSpeedGustMPH,Humidity,HourlyPrecipIn,Conditions,Clouds,dailyrainin,SolarRadiationWatts/m^2,SoftwareType,DateUTC
2013-04-05 00:22:00,20.0,-6.0,-100.00,NE,47,8.0,19.0,31,0.00,,,0.00,0.000000,,2013-04-05 08:22:00,
2013-04-05 00:32:00,20.0,-6.0,-100.00,NE,47,8.0,19.0,31,0.00,,,0.00,0.000000,,2013-04-05 08:32:00,
2013-04-05 00:42:00,20.0,-6.0,-100.00,NE,47,8.0,19.0,31,0.00,,,0.00,0.000000,,2013-04-05 08:42:00,
2013-04-05 00:52:00,20.0,-6.0,-100.00,NE,47,8.0,19.0,31,0.00,,,0.00,0.000000,,2013-04-05 08:52:00,
2013-04-05 01:22:00,20.0,-4.0,-100.00,NE,46,8.0,18.0,33,0.00,,,0.00,0.000000,,2013-04-05 09:22:00,
2013-04-05 01:33:00,20.0,-4.0,-100.00,NE,46,8.0,18.0,33,0.00,,,0.00,0.000000,,2013-04-05 09:33:00,
2013-04-05 01:42:00,20.0,-4.0,-100.00,NE,46,8.0,18.0,33,0.00,,,0.00,0.000000,,2013-04-05 09:42:00,
2013-04-05 01:52:00,20.0,-4.0,-100.00,NE,46,8.0,18.0,33,0.00,,,0.00,0.000000,,2013-04-05 09:52:00,
2013-04-05 02:23:00,19.0,-5.0,-100.00,ENE,76,5.0,19.0,33,0.00,,,0.00,0.000000,,2013-04-05 10:23:00,
2013-04-05 02:32:00,19.0,-5.0,-100.00,ENE,76,5.0,19.0,33,0.00,,,0.00,0.000000,,2013-04-05 10:32:00,
2013-04-05 02:42:00,19.0,-5.0,-100.00,ENE,76,5.0,19.0,33,0.00,,,0.00,0.000000,,2013-04-05 10:42:00,
2013-04-05 02:52:00,19.0,-5.0,-100.00,ENE,76,5.0,19.0,33,0.00,,,0.00,0.000000,,2013-04-05 10:52:00,
2013-04-05 03:22:00,13.0,-4.0,-100.00,West,270,1.0,12.0,45,0.00,,,0.00,0.000000,,2013-04-05 11:22:00,
2013-04-05 03:32:00,13.0,-4.0,-100.00,West,270,1.0,12.0,45,0.00,,,0.00,0.000000,,2013-04-05 11:32:00,
2013-04-05 03:42:00,13.0,-4.0,-100.00,West,270,1.0,12.0,45,0.00,,,0.00,0.000000,,2013-04-05 11:42:00,
2013-04-05 03:52:00,13.0,-4.0,-100.00,West,270,1.0,12.0,45,0.00,,,0.00,0.000000,,2013-04-05 11:52:00,
2013-04-05 04:22:00,6.0,-4.0,-100.00,SW,236,1.0,4.0,63,0.00,,,0.00,0.000000,,2013-04-05 12:22:00,
2013-04-05 04:32:00,6.0,-4.0,-100.00,SW,236,1.0,4.0,63,0.00,,,0.00,0.000000,,2013-04-05 12:32:00,
2013-04-05 04:42:00,6.0,-4.0,-100.00,SW,236,1.0,4.0,63,0.00,,,0.00,0.000000,,2013-04-05 12:42:00,
2013-04-05 04:52:00,6.0,-4.0,-100.00,SW,236,1.0,4.0,63,0.00,,,0.00,0.000000,,2013-04-05 12:52:00,
2013-04-05 05:22:00,4.0,-6.0,-100.00,South,171,1.0,4.0,63,0.00,,,0.00,0.000000,,2013-04-05 13:22:00,
2013-04-05 05:32:00,4.0,-6.0,-100.00,South,171,1.0,4.0,63,0.00,,,0.00,0.000000,,2013-04-05 13:32:00,
2013-04-05 05:42:00,4.0,-6.0,-100.00,South,171,1.0,4.0,63,0.00,,,0.00,0.000000,,2013-04-05 13:42:00,
2013-04-05 05:52:00,4.0,-6.0,-100.00,South,171,1.0,4.0,63,0.00,,,0.00,0.000000,,2013-04-05 13:52:00,
2013-04-05 06:22:00,4.0,-7.0,-100.00,South,174,2.0,5.0,60,0.00,,,0.00,0.000000,,2013-04-05 14:22:00,
2013-04-05 06:36:00,4.0,-7.0,-100.00,South,174,2.0,5.0,60,0.00,,,0.00,0.000000,,2013-04-05 14:36:00,
2013-04-05 06:42:00,4.0,-7.0,-100.00,South,174,2.0,5.0,60,0.00,,,0.00,0.000000,,2013-04-05 14:42:00,
2013-04-05 06:52:00,4.0,-7.0,-100.00,South,174,2.0,5.0,60,0.00,,,0.00,0.000000,,2013-04-05 14:52:00,
2013-04-05 07:23:00,1.0,-8.0,-100.00,South,188,2.0,6.0,65,0.00,,,-99.99,3.000000,,2013-04-05 15:23:00,
2013-04-05 07:33:00,1.0,-8.0,-100.00,South,188,2.0,6.0,65,0.00,,,-99.99,3.000000,,2013-04-05 15:33:00,
2013-04-05 07:42:00,1.0,-8.0,-100.00,South,188,2.0,6.0,65,0.00,,,-99.99,3.000000,,2013-04-05 15:42:00,
2013-04-05 07:52:00,1.0,-8.0,-100.00,South,188,2.0,6.0,65,0.00,,,-99.99,3.000000,,2013-04-05 15:52:00,
2013-04-05 08:23:00,-1.0,-8.0,-100.00,ESE,114,0.0,4.0,70,0.00,,,0.00,22.000000,,2013-04-05 16:23:00,
2013-04-05 08:32:00,-1.0,-8.0,-100.00,ESE,114,0.0,4.0,70,0.00,,,0.00,22.000000,,2013-04-05 16:32:00,
2013-04-05 08:42:00,-1.0,-8.0,-100.00,ESE,114,0.0,4.0,70,0.00,,,0.00,22.000000,,2013-04-05 16:42:00,
2013-04-05 08:52:00,-1.0,-8.0,-100.00,ESE,114,0.0,4.0,70,0.00,,,0.00,22.000000,,2013-04-05 16:52:00,
2013-04-05 09:23:00,19.0,-5.0,-100.00,WNW,291,0.0,3.0,34,0.00,,,0.00,220.000000,,2013-04-05 17:23:00,
2013-04-05 09:32:00,19.0,-5.0,-100.00,WNW,291,0.0,3.0,34,0.00,,,0.00,220.000000,,2013-04-05 17:32:00,
2013-04-05 09:45:00,19.0,-5.0,-100.00,WNW,291,0.0,3.0,34,0.00,,,0.00,220.000000,,2013-04-05 17:45:00,
2013-04-05 09:52:00,19.0,-5.0,-100.00,WNW,291,0.0,3.0,34,0.00,,,0.00,220.000000,,2013-04-05 17:52:00,
2013-04-05 10:22:00,24.0,-5.0,-100.00,NNW,333,2.0,4.0,27,-99.99,,,0.00,389.000000,,2013-04-05 18:22:00,
2013-04-05 10:32:00,24.0,-5.0,-100.00,NNW,333,2.0,4.0,27,-99.99,,,0.00,389.000000,,2013-04-05 18:32:00,
2013-04-05 10:42:00,24.0,-5.0,-100.00,NNW,333,2.0,4.0,27,-99.99,,,0.00,389.000000,,2013-04-05 18:42:00,
2013-04-05 10:52:00,24.0,-5.0,-100.00,NNW,333,2.0,4.0,27,-99.99,,,0.00,389.000000,,2013-04-05 18:52:00,
2013-04-05 11:22:00,24.0,-4.0,-100.00,NW,306,4.0,8.0,28,0.00,,,0.00,526.000000,,2013-04-05 19:22:00,
2013-04-05 11:32:00,24.0,-4.0,-100.00,NW,306,4.0,8.0,28,0.00,,,0.00,526.000000,,2013-04-05 19:32:00,
2013-04-05 11:42:00,24.0,-4.0,-100.00,NW,306,4.0,8.0,28,0.00,,,0.00,526.000000,,2013-04-05 19:42:00,
2013-04-05 11:52:00,24.0,-4.0,-100.00,NW,306,4.0,8.0,28,0.00,,,0.00,526.000000,,2013-04-05 19:52:00,
2013-04-05 12:22:00,27.0,-4.0,-100.00,NW,321,3.0,7.0,25,0.00,,,0.00,627.000000,,2013-04-05 20:22:00,
2013-04-05 12:32:00,27.0,-4.0,-100.00,NW,321,3.0,7.0,25,0.00,,,0.00,627.000000,,2013-04-05 20:32:00,
2013-04-05 12:42:00,27.0,-4.0,-100.00,NW,321,3.0,7.0,25,0.00,,,0.00,627.000000,,2013-04-05 20:42:00,
2013-04-05 12:52:00,27.0,-4.0,-100.00,NW,321,3.0,7.0,25,0.00,,,0.00,627.000000,,2013-04-05 20:52:00,
2013-04-05 13:23:00,30.0,-2.0,-100.00,East,84,2.0,7.0,24,0.00,,,0.00,691.000000,,2013-04-05 21:23:00,
2013-04-05 13:33:00,30.0,-2.0,-100.00,East,84,2.0,7.0,24,0.00,,,0.00,691.000000,,2013-04-05 21:33:00,
2013-04-05 13:42:00,30.0,-2.0,-100.00,East,84,2.0,7.0,24,0.00,,,0.00,691.000000,,2013-04-05 21:42:00,
2013-04-05 13:53:00,30.0,-2.0,-100.00,East,84,2.0,7.0,24,0.00,,,0.00,691.000000,,2013-04-05 21:53:00,
2013-04-05 14:23:00,30.0,-2.0,-100.00,NNE,12,4.0,9.0,24,0.00,,,0.00,708.000000,,2013-04-05 22:23:00,
2013-04-05 14:33:00,30.0,-2.0,-100.00,NNE,12,4.0,9.0,24,0.00,,,0.00,708.000000,,2013-04-05 22:33:00,
2013-04-05 14:42:00,30.0,-2.0,-100.00,NNE,12,4.0,9.0,24,0.00,,,0.00,708.000000,,2013-04-05 22:42:00,
2013-04-05 14:52:00,30.0,-2.0,-100.00,NNE,12,4.0,9.0,24,0.00,,,0.00,708.000000,,2013-04-05 22:52:00,
2013-04-05 15:22:00,32.0,-2.0,-100.00,NNE,22,4.0,9.0,22,0.00,,,0.00,678.000000,,2013-04-05 23:22:00,
2013-04-05 15:32:00,32.0,-2.0,-100.00,NNE,22,4.0,9.0,22,0.00,,,0.00,678.000000,,2013-04-05 23:32:00,
2013-04-05 15:42:00,32.0,-2.0,-100.00,NNE,22,4.0,9.0,22,0.00,,,0.00,678.000000,,2013-04-05 23:42:00,
2013-04-05 15:52:00,32.0,-2.0,-100.00,NNE,22,4.0,9.0,22,0.00,,,0.00,678.000000,,2013-04-05 23:52:00,
2013-04-05 16:22:00,32.0,-2.0,-100.00,East,92,4.0,10.0,23,0.00,,,0.00,604.000000,,2013-04-06 00:22:00,
2013-04-05 16:32:00,32.0,-2.0,-100.00,East,92,4.0,10.0,23,0.00,,,0.00,604.000000,,2013-04-06 00:32:00,
2013-04-05 16:42:00,32.0,-2.0,-100.00,East,92,4.0,10.0,23,0.00,,,0.00,604.000000,,2013-04-06 00:42:00,
2013-04-05 16:52:00,32.0,-2.0,-100.00,East,92,4.0,10.0,23,0.00,,,0.00,604.000000,,2013-04-06 00:52:00,
2013-04-05 17:22:00,31.0,-2.0,-100.00,ENE,71,4.0,9.0,23,0.00,,,0.00,492.000000,,2013-04-06 01:22:00,
2013-04-05 17:32:00,31.0,-2.0,-100.00,ENE,71,4.0,9.0,23,0.00,,,0.00,492.000000,,2013-04-06 01:32:00,
2013-04-05 17:42:00,31.0,-2.0,-100.00,ENE,71,4.0,9.0,23,0.00,,,0.00,492.000000,,2013-04-06 01:42:00,
2013-04-05 17:52:00,31.0,-2.0,-100.00,ENE,71,4.0,9.0,23,0.00,,,0.00,492.000000,,2013-04-06 01:52:00,
2013-04-05 18:22:00,30.0,-2.0,-100.00,East,86,5.0,10.0,25,0.00,,,0.00,353.000000,,2013-04-06 02:22:00,
2013-04-05 18:32:00,30.0,-2.0,-100.00,East,86,5.0,10.0,25,0.00,,,0.00,353.000000,,2013-04-06 02:32:00,
2013-04-05 18:42:00,30.0,-2.0,-100.00,East,86,5.0,10.0,25,0.00,,,0.00,353.000000,,2013-04-06 02:42:00,
2013-04-05 18:52:00,30.0,-2.0,-100.00,East,86,5.0,10.0,25,0.00,,,0.00,353.000000,,2013-04-06 02:52:00,
2013-04-05 19:22:00,28.0,-2.0,-100.00,East,87,4.0,9.0,26,0.00,,,0.00,208.000000,,2013-04-06 03:22:00,
2013-04-05 19:33:00,28.0,-2.0,-100.00,East,87,4.0,9.0,26,0.00,,,0.00,208.000000,,2013-04-06 03:33:00,
2013-04-05 19:42:00,28.0,-2.0,-100.00,East,87,4.0,9.0,26,0.00,,,0.00,208.000000,,2013-04-06 03:42:00,
2013-04-05 19:52:00,28.0,-2.0,-100.00,East,87,4.0,9.0,26,0.00,,,0.00,208.000000,,2013-04-06 03:52:00,
2013-04-05 20:23:00,22.0,-4.0,-100.00,East,92,4.0,8.0,31,0.00,,,0.00,67.000000,,2013-04-06 04:23:00,
2013-04-05 20:32:00,22.0,-4.0,-100.00,East,92,4.0,8.0,31,0.00,,,0.00,67.000000,,2013-04-06 04:32:00,
2013-04-05 20:42:00,22.0,-4.0,-100.00,East,92,4.0,8.0,31,0.00,,,0.00,67.000000,,2013-04-06 04:42:00,
2013-04-05 20:52:00,22.0,-4.0,-100.00,East,92,4.0,8.0,31,0.00,,,0.00,67.000000,,2013-04-06 04:52:00,
2013-04-05 21:22:00,18.0,-4.0,-100.00,ESE,110,4.0,7.0,36,0.00,,,0.00,10.000000,,2013-04-06 05:22:00,
2013-04-05 21:32:00,18.0,-4.0,-100.00,ESE,110,4.0,7.0,36,0.00,,,0.00,10.000000,,2013-04-06 05:32:00,
2013-04-05 21:42:00,18.0,-4.0,-100.00,ESE,110,4.0,7.0,36,0.00,,,0.00,10.000000,,2013-04-06 05:42:00,
2013-04-05 21:51:00,18.0,-4.0,-100.00,ESE,110,4.0,7.0,36,0.00,,,0.00,10.000000,,2013-04-06 05:51:00,
2013-04-05 22:22:00,17.0,-4.0,-100.00,East,98,6.0,13.0,39,0.00,,,-99.99,0.000000,,2013-04-06 06:22:00,
2013-04-05 22:32:00,17.0,-4.0,-100.00,East,98,6.0,13.0,39,0.00,,,-99.99,0.000000,,2013-04-06 06:32:00,
2013-04-05 22:42:00,17.0,-4.0,-100.00,East,98,6.0,13.0,39,0.00,,,-99.99,0.000000,,2013-04-06 06:42:00,
2013-04-05 22:52:00,17.0,-4.0,-100.00,East,98,6.0,13.0,39,0.00,,,-99.99,0.000000,,2013-04-06 06:52:00,
2013-04-05 23:22:00,15.0,-4.0,-100.00,East,97,5.0,12.0,41,0.00,,,-99.99,0.000000,,2013-04-06 07:22:00,
2013-04-05 23:32:00,15.0,-4.0,-100.00,East,97,5.0,12.0,41,0.00,,,-99.99,0.000000,,2013-04-06 07:32:00,
2013-04-05 23:42:00,15.0,-4.0,-100.00,East,97,5.0,12.0,41,0.00,,,-99.99,0.000000,,2013-04-06 07:42:00,
2013-04-05 23:52:00,15.0,-4.0,-100.00,East,97,5.0,12.0,41,0.00,,,-99.99,0.000000,,2013-04-06 07:52:00,